createdAt,value
2022-12-27T00:02:22.079Z,4.80
2022-12-27T00:04:50.133Z,3.83
2022-12-27T00:07:18.989Z,8.03
2022-12-27T00:09:46.642Z,4.00
2022-12-27T00:12:14.110Z,4.90
2022-12-27T00:14:41.693Z,6.70
2022-12-27T00:17:09.162Z,7.77
2022-12-27T00:19:36.667Z,29.13
2022-12-27T00:22:05.275Z,69.33
2022-12-27T00:24:35.239Z,37.83
2022-12-27T00:27:02.937Z,52.07
2022-12-27T00:29:30.591Z,57.17
2022-12-27T00:31:58.156Z,42.60
2022-12-27T00:34:25.680Z,39.53
2022-12-27T00:36:53.149Z,34.93
2022-12-27T00:39:20.668Z,50.93
2022-12-27T00:41:49.546Z,46.00
2022-12-27T00:44:17.262Z,22.10
2022-12-27T00:46:44.827Z,58.73
2022-12-27T00:49:12.399Z,24.63
2022-12-27T00:51:39.878Z,21.13
2022-12-27T00:54:07.844Z,10.13
2022-12-27T00:56:35.388Z,30.17
2022-12-27T00:59:05.747Z,21.70
2022-12-27T01:01:36.203Z,16.73
2022-12-27T01:04:05.378Z,19.73
2022-12-27T01:06:35.316Z,13.57
2022-12-27T01:09:03.757Z,5.03
2022-12-27T01:11:31.986Z,3.33
2022-12-27T01:14:00.752Z,3.97
2022-12-27T01:16:31.187Z,2.93
2022-12-27T01:18:59.940Z,4.10
2022-12-27T01:21:30.534Z,3.20
2022-12-27T01:23:58.140Z,5.73
2022-12-27T01:26:26.018Z,2.90
2022-12-27T01:28:54.531Z,2.80
2022-12-27T01:31:24.680Z,2.10
2022-12-27T01:33:56.947Z,3.20
2022-12-27T01:36:26.023Z,6.83
2022-12-27T01:38:53.549Z,2.90
2022-12-27T01:41:41.877Z,3.30
2022-12-27T01:44:49.431Z,4.10
2022-12-27T01:47:22.914Z,3.60
2022-12-27T01:49:58.947Z,3.00
2022-12-27T01:52:34.440Z,2.90
2022-12-27T01:55:09.872Z,3.00
2022-12-27T01:57:37.731Z,2.63
2022-12-27T02:00:12.186Z,3.83
2022-12-27T02:02:40.499Z,3.10
2022-12-27T02:05:13.588Z,2.70
2022-12-27T02:07:48.733Z,2.53
2022-12-27T02:10:17.244Z,2.50
2022-12-27T02:12:44.779Z,4.00
2022-12-27T02:15:12.405Z,2.50
2022-12-27T02:17:39.929Z,2.50
2022-12-27T02:20:13.484Z,2.97
2022-12-27T02:23:34.798Z,3.17
2022-12-27T02:26:46.579Z,3.30
2022-12-27T02:29:23.721Z,3.30
2022-12-27T02:32:00.197Z,2.87
2022-12-27T02:34:38.311Z,2.83
2022-12-27T02:37:11.012Z,2.70
2022-12-27T02:39:43.608Z,2.47
2022-12-27T02:42:30.210Z,2.07
2022-12-27T02:45:16.787Z,2.43
2022-12-27T02:48:03.719Z,2.50
2022-12-27T02:51:03.353Z,2.70
2022-12-27T02:53:40.331Z,3.13
2022-12-27T02:56:39.810Z,3.17
2022-12-27T02:59:23.980Z,3.40
2022-12-27T03:02:21.054Z,2.40
2022-12-27T03:05:03.947Z,2.00
2022-12-27T03:07:38.426Z,2.60
2022-12-27T03:10:42.051Z,2.43
2022-12-27T03:13:37.983Z,2.50
2022-12-27T03:16:19.930Z,2.80
2022-12-27T03:19:00.066Z,6.90
2022-12-27T03:21:49.662Z,34.97
2022-12-27T03:24:37.413Z,37.57
2022-12-27T03:27:10.767Z,24.97
2022-12-27T03:29:56.747Z,37.47
2022-12-27T03:32:42.680Z,30.80
2022-12-27T03:35:17.672Z,36.70
2022-12-27T03:38:05.709Z,24.47
2022-12-27T03:41:01.776Z,9.27
2022-12-27T03:43:29.773Z,10.17
2022-12-27T03:46:17.081Z,4.63
2022-12-27T03:49:04.312Z,2.10
2022-12-27T03:51:38.694Z,2.23
2022-12-27T03:54:10.321Z,2.47
2022-12-27T03:56:38.806Z,2.60
2022-12-27T03:59:06.701Z,2.40
2022-12-27T04:01:34.261Z,2.00
2022-12-27T04:04:01.871Z,2.70
2022-12-27T04:06:29.358Z,2.50
2022-12-27T04:09:15.953Z,3.10
2022-12-27T04:12:01.009Z,2.30
2022-12-27T04:14:46.321Z,1.80
2022-12-27T04:17:31.374Z,2.10
2022-12-27T04:20:16.673Z,2.10
2022-12-27T04:23:01.522Z,2.57
2022-12-27T04:25:48.385Z,2.70
2022-12-27T04:28:33.831Z,2.70
2022-12-27T04:31:18.823Z,2.87
2022-12-27T04:34:04.258Z,3.00
2022-12-27T04:36:31.787Z,2.67
2022-12-27T04:38:59.288Z,2.50
2022-12-27T04:41:45.621Z,3.10
2022-12-27T04:44:31.039Z,3.03
2022-12-27T04:47:16.620Z,2.60
2022-12-27T04:50:01.811Z,2.20
2022-12-27T04:52:46.979Z,2.07
2022-12-27T04:55:20.408Z,2.20
2022-12-27T04:57:49.709Z,2.00
2022-12-27T05:00:35.952Z,2.40
2022-12-27T05:03:06.653Z,2.63
2022-12-27T05:05:35.524Z,2.67
2022-12-27T05:08:21.558Z,3.30
2022-12-27T05:11:06.617Z,3.60
2022-12-27T05:13:53.392Z,3.80
2022-12-27T05:16:21.039Z,4.03
2022-12-27T05:18:48.584Z,5.23
2022-12-27T05:21:16.068Z,4.73
2022-12-27T05:24:05.378Z,4.67
2022-12-27T05:26:34.071Z,4.87
2022-12-27T05:29:03.034Z,4.57
2022-12-27T05:31:30.624Z,5.27
2022-12-27T05:33:58.853Z,6.47
2022-12-27T05:36:26.599Z,6.30
2022-12-27T05:38:54.199Z,7.00
2022-12-27T05:41:21.687Z,6.37
2022-12-27T05:43:49.357Z,6.83
2022-12-27T05:46:20.463Z,6.53
2022-12-27T05:48:48.697Z,5.73
2022-12-27T05:51:18.247Z,7.33
2022-12-27T05:53:46.156Z,7.40
2022-12-27T05:56:16.642Z,6.10
2022-12-27T05:58:44.774Z,5.90
2022-12-27T06:01:14.973Z,5.77
2022-12-27T06:03:44.200Z,5.60
2022-12-27T06:06:12.303Z,5.60
2022-12-27T06:08:40.632Z,7.10
2022-12-27T06:11:10.104Z,5.83
2022-12-27T06:13:38.665Z,6.60
2022-12-27T06:16:09.113Z,5.60
2022-12-27T06:18:38.733Z,5.93
2022-12-27T06:21:10.849Z,6.47
2022-12-27T06:23:40.523Z,6.73
2022-12-27T06:26:09.077Z,6.20
2022-12-27T06:28:36.580Z,7.13
2022-12-27T06:31:04.983Z,6.00
2022-12-27T06:33:32.847Z,6.70
2022-12-27T06:36:00.370Z,6.13
2022-12-27T06:38:29.242Z,6.13
2022-12-27T06:41:01.704Z,6.63
2022-12-27T06:43:29.222Z,7.47
2022-12-27T06:45:57.710Z,7.43
2022-12-27T06:48:25.761Z,6.20
2022-12-27T06:50:53.431Z,6.53
2022-12-27T06:53:21.024Z,5.80
2022-12-27T06:55:49.947Z,6.60
2022-12-27T06:58:17.664Z,6.47
2022-12-27T07:00:45.146Z,5.60
2022-12-27T07:03:12.697Z,6.17
2022-12-27T07:05:40.414Z,5.90
2022-12-27T07:08:07.929Z,5.83
2022-12-27T07:10:37.227Z,6.87
2022-12-27T07:13:06.061Z,8.03
2022-12-27T07:15:33.565Z,7.27
2022-12-27T07:18:01.048Z,9.77
2022-12-27T07:20:28.581Z,11.20
2022-12-27T07:22:58.817Z,9.43
2022-12-27T07:25:26.368Z,9.60
2022-12-27T07:27:54.342Z,10.47
2022-12-27T07:30:23.443Z,13.53
2022-12-27T07:32:50.960Z,10.30
2022-12-27T07:35:18.479Z,15.93
2022-12-27T07:37:45.970Z,10.53
2022-12-27T07:40:13.517Z,9.97
2022-12-27T07:42:41.076Z,10.30
2022-12-27T07:45:09.629Z,16.13
2022-12-27T07:47:38.449Z,10.60
2022-12-27T07:50:06.675Z,12.93
2022-12-27T07:52:34.163Z,12.90
2022-12-27T07:55:01.694Z,14.40
2022-12-27T07:57:29.609Z,13.10
2022-12-27T07:59:57.090Z,12.70
2022-12-27T08:02:24.663Z,12.90
2022-12-27T08:04:53.590Z,11.73
2022-12-27T08:07:21.412Z,8.30
2022-12-27T08:09:49.838Z,9.47
2022-12-27T08:12:17.565Z,8.30
2022-12-27T08:14:45.651Z,10.00
2022-12-27T08:17:17.074Z,9.97
2022-12-27T08:19:44.581Z,7.67
2022-12-27T08:22:13.432Z,8.27
2022-12-27T08:24:41.571Z,7.87
2022-12-27T08:27:09.450Z,7.70
2022-12-27T08:29:37.735Z,14.77
2022-12-27T08:32:06.023Z,17.37
2022-12-27T08:34:33.499Z,12.03
2022-12-27T08:37:00.972Z,12.60
2022-12-27T08:39:30.174Z,24.30
2022-12-27T08:41:57.685Z,9.70
2022-12-27T08:44:25.532Z,35.47
2022-12-27T08:46:53.037Z,52.67
2022-12-27T08:49:20.526Z,65.13
2022-12-27T08:51:47.999Z,79.97
2022-12-27T08:54:15.484Z,51.73
2022-12-27T08:56:44.303Z,54.80
2022-12-27T08:59:11.790Z,8.27
2022-12-27T09:01:39.364Z,5.03
2022-12-27T09:04:06.980Z,3.93
2022-12-27T09:06:34.492Z,5.50
2022-12-27T09:09:02.028Z,4.57
2022-12-27T09:11:31.298Z,5.00
2022-12-27T09:14:02.275Z,3.00
2022-12-27T09:16:30.949Z,9.63
2022-12-27T09:18:59.966Z,13.47
2022-12-27T09:21:31.546Z,2.80
2022-12-27T09:23:59.680Z,19.40
2022-12-27T09:26:29.237Z,22.50
2022-12-27T09:28:57.789Z,26.43
2022-12-27T09:31:27.309Z,32.17
2022-12-27T09:33:55.099Z,28.97
2022-12-27T09:36:24.611Z,27.07
2022-12-27T09:38:53.513Z,15.13
2022-12-27T09:42:26.012Z,20.23
2022-12-27T09:44:22.983Z,30.40
2022-12-27T09:46:59.050Z,27.37
2022-12-27T09:49:32.011Z,18.37
2022-12-27T09:52:03.524Z,23.00
2022-12-27T09:54:38.124Z,25.60
2022-12-27T09:57:22.299Z,31.07
2022-12-27T09:59:52.547Z,31.70
2022-12-27T10:02:23.659Z,31.13
2022-12-27T10:05:19.118Z,27.53
2022-12-27T10:07:54.169Z,29.10
2022-12-27T10:10:33.803Z,27.70
2022-12-27T10:13:11.205Z,28.90
2022-12-27T10:15:48.315Z,29.33
2022-12-27T10:18:33.429Z,30.20
2022-12-27T10:21:11.425Z,28.87
2022-12-27T10:23:43.032Z,31.23
2022-12-27T10:26:14.757Z,30.33
2022-12-27T10:28:44.703Z,30.00
2022-12-27T10:31:15.833Z,26.10
2022-12-27T10:33:45.795Z,27.27
2022-12-27T10:36:16.127Z,19.30
2022-12-27T10:38:43.835Z,26.10
2022-12-27T10:41:27.351Z,25.47
2022-12-27T10:43:56.178Z,28.37
2022-12-27T10:46:32.504Z,29.13
2022-12-27T10:49:20.786Z,27.00
2022-12-27T10:51:49.724Z,27.03
2022-12-27T10:54:23.231Z,31.47
2022-12-27T10:56:50.755Z,24.87
2022-12-27T10:59:20.148Z,22.10
2022-12-27T11:01:49.967Z,22.20
2022-12-27T11:04:21.817Z,26.20
2022-12-27T11:06:51.486Z,26.97
2022-12-27T11:09:25.837Z,26.00
2022-12-27T11:11:53.406Z,27.63
2022-12-27T11:14:22.051Z,25.20
2022-12-27T11:16:50.162Z,26.33
2022-12-27T11:19:26.733Z,28.20
2022-12-27T11:21:55.739Z,17.70
2022-12-27T11:24:23.835Z,19.57
2022-12-27T11:26:54.532Z,25.80
2022-12-27T11:29:25.605Z,20.93
2022-12-27T11:31:54.722Z,13.37
2022-12-27T11:34:28.668Z,21.03
2022-12-27T11:37:03.470Z,23.03
2022-12-27T11:39:45.352Z,19.83
2022-12-27T11:42:26.605Z,17.47
2022-12-27T11:45:04.024Z,12.57
2022-12-27T11:47:37.153Z,6.17
2022-12-27T11:50:23.232Z,8.90
2022-12-27T11:53:09.869Z,6.90
2022-12-27T11:56:11.552Z,5.93
2022-12-27T11:59:19.973Z,1.90
2022-12-27T12:02:08.837Z,2.00
2022-12-27T12:05:15.947Z,2.10
2022-12-27T12:08:01.458Z,2.00
2022-12-27T12:10:40.266Z,2.10
2022-12-27T12:13:19.746Z,1.90
2022-12-27T12:16:27.037Z,1.90
2022-12-27T12:19:08.710Z,1.70
2022-12-27T12:21:41.405Z,1.63
2022-12-27T12:24:37.376Z,2.30
2022-12-27T12:27:18.917Z,2.47
2022-12-27T12:30:02.610Z,2.63
2022-12-27T12:32:43.999Z,2.17
2022-12-27T12:35:28.619Z,2.40
2022-12-27T12:38:19.841Z,2.20
2022-12-27T12:41:08.934Z,1.70
2022-12-27T12:44:17.082Z,1.70
2022-12-27T12:46:50.628Z,2.03
2022-12-27T12:49:40.949Z,2.00
2022-12-27T12:52:26.286Z,2.10
2022-12-27T12:55:15.547Z,2.13
2022-12-27T12:57:57.809Z,2.00
2022-12-27T13:00:36.229Z,2.00
2022-12-27T13:03:45.845Z,1.83
2022-12-27T13:06:26.369Z,2.07
2022-12-27T13:09:03.559Z,2.00
2022-12-27T13:11:49.393Z,2.17
2022-12-27T13:14:38.365Z,2.43
2022-12-27T13:17:16.452Z,2.77
2022-12-27T13:20:07.946Z,2.60
2022-12-27T13:22:47.305Z,1.97
2022-12-27T13:25:22.906Z,2.37
2022-12-27T13:27:55.010Z,2.23
2022-12-27T13:30:25.999Z,1.80
2022-12-27T13:33:22.841Z,2.10
2022-12-27T13:36:04.602Z,2.03
2022-12-27T13:38:46.037Z,1.87
2022-12-27T13:41:33.457Z,1.70
2022-12-27T13:44:33.622Z,1.73
2022-12-27T13:47:22.928Z,1.97
2022-12-27T13:50:32.214Z,2.13
2022-12-27T13:53:21.239Z,2.30
2022-12-27T13:55:56.484Z,2.57
2022-12-27T13:58:59.738Z,2.53
2022-12-27T14:01:46.962Z,3.07
2022-12-27T14:04:44.839Z,2.97
2022-12-27T14:07:27.726Z,2.77
2022-12-27T14:10:09.928Z,3.07
2022-12-27T14:12:57.209Z,2.20
2022-12-27T14:15:30.965Z,2.77
2022-12-27T14:18:15.323Z,1.97
2022-12-27T14:20:57.530Z,2.03
2022-12-27T14:23:39.512Z,1.90
2022-12-27T14:26:51.619Z,2.07
2022-12-27T14:30:00.507Z,2.47
2022-12-27T14:32:54.272Z,2.27
2022-12-27T14:35:56.627Z,1.97
2022-12-27T14:38:47.880Z,2.00
2022-12-27T14:41:48.116Z,2.30
2022-12-27T14:44:45.597Z,3.83
2022-12-27T14:47:46.943Z,8.30
2022-12-27T14:50:35.111Z,7.70
2022-12-27T14:53:31.016Z,15.33
2022-12-27T14:56:08.257Z,19.97
2022-12-27T14:59:01.912Z,28.10
2022-12-27T15:01:44.474Z,33.47
2022-12-27T15:04:35.702Z,35.90
2022-12-27T15:07:37.505Z,34.83
2022-12-27T15:10:15.152Z,33.33
2022-12-27T15:12:52.451Z,23.20
2022-12-27T15:15:37.160Z,29.77
2022-12-27T15:18:30.523Z,17.37
2022-12-27T15:21:16.551Z,14.30
2022-12-27T15:23:51.826Z,20.77
2022-12-27T15:26:30.083Z,9.27
2022-12-27T15:29:10.998Z,6.57
2022-12-27T15:31:50.105Z,6.63
2022-12-27T15:34:34.794Z,4.67
2022-12-27T15:37:02.894Z,3.60
2022-12-27T15:39:50.460Z,3.63
2022-12-27T15:42:48.610Z,4.00
2022-12-27T15:45:31.340Z,5.47
2022-12-27T15:48:30.882Z,3.50
2022-12-27T15:51:07.652Z,5.23
2022-12-27T15:53:48.767Z,3.30
2022-12-27T15:56:36.942Z,3.10
2022-12-27T15:59:35.972Z,2.93
2022-12-27T16:02:42.053Z,3.20
2022-12-27T16:05:35.221Z,3.03
2022-12-27T16:08:35.301Z,3.33
2022-12-27T16:11:05.694Z,3.13
2022-12-27T16:13:41.801Z,3.33
2022-12-27T16:16:28.060Z,3.47
2022-12-27T16:19:13.881Z,2.80
2022-12-27T16:21:44.420Z,4.97
2022-12-27T16:24:19.768Z,2.43
2022-12-27T16:27:01.573Z,3.57
2022-12-27T16:29:32.450Z,3.87
2022-12-27T16:32:20.593Z,4.40
2022-12-27T16:34:54.191Z,6.13
2022-12-27T16:37:29.008Z,3.77
2022-12-27T16:40:18.099Z,3.53
2022-12-27T16:43:28.444Z,4.93
2022-12-27T16:46:06.737Z,4.10
2022-12-27T16:48:46.933Z,3.73
2022-12-27T16:51:22.049Z,4.40
2022-12-27T16:54:05.022Z,3.63
2022-12-27T16:56:34.105Z,3.50
2022-12-27T16:59:01.859Z,3.33
2022-12-27T17:01:46.697Z,3.50
2022-12-27T17:04:49.767Z,3.93
2022-12-27T17:07:44.322Z,3.93
2022-12-27T17:10:34.042Z,4.83
2022-12-27T17:13:09.128Z,8.80
2022-12-27T17:15:44.890Z,7.37
2022-12-27T17:18:27.662Z,6.60
2022-12-27T17:21:03.060Z,5.53
2022-12-27T17:23:32.235Z,5.63
2022-12-27T17:26:20.685Z,6.73
2022-12-27T17:28:55.517Z,5.07
2022-12-27T17:31:31.457Z,6.47
2022-12-27T17:34:07.673Z,6.40
2022-12-27T17:36:46.018Z,6.63
2022-12-27T17:39:27.431Z,7.40
2022-12-27T17:42:20.014Z,5.70
2022-12-27T17:45:12.427Z,6.00
2022-12-27T17:48:07.524Z,6.90
2022-12-27T17:50:37.702Z,5.97
2022-12-27T17:53:34.399Z,6.27
2022-12-27T17:56:31.827Z,5.60
2022-12-27T17:59:04.461Z,6.33
2022-12-27T18:01:34.556Z,6.30
2022-12-27T18:04:04.909Z,5.83
2022-12-27T18:06:32.739Z,6.33
2022-12-27T18:09:00.330Z,5.73
2022-12-27T18:11:32.592Z,6.83
2022-12-27T18:14:00.689Z,7.07
2022-12-27T18:16:37.239Z,6.53
2022-12-27T18:19:05.427Z,7.73
2022-12-27T18:21:33.254Z,7.60
2022-12-27T18:24:00.733Z,6.77
2022-12-27T18:26:37.442Z,7.40
2022-12-27T18:29:05.767Z,8.33
2022-12-27T18:31:37.097Z,7.67
2022-12-27T18:34:08.292Z,7.50
2022-12-27T18:36:41.092Z,7.67
2022-12-27T18:39:18.915Z,9.53
2022-12-27T18:41:51.416Z,8.50
2022-12-27T18:44:27.068Z,7.90
2022-12-27T18:46:57.834Z,8.33
2022-12-27T18:49:27.406Z,7.80
2022-12-27T18:51:55.666Z,9.50
2022-12-27T18:54:33.259Z,8.60
2022-12-27T18:57:04.108Z,8.70
2022-12-27T18:59:33.135Z,10.17
2022-12-27T19:02:03.712Z,9.90
2022-12-27T19:04:32.714Z,11.03
2022-12-27T19:07:10.467Z,10.33
2022-12-27T19:09:42.471Z,9.00
2022-12-27T19:12:23.554Z,9.03
2022-12-27T19:14:51.548Z,8.07
2022-12-27T19:17:22.678Z,7.93
2022-12-27T19:19:52.492Z,7.40
2022-12-27T19:22:37.009Z,7.47
2022-12-27T19:25:07.554Z,7.33
2022-12-27T19:27:36.355Z,8.87
2022-12-27T19:30:04.299Z,8.47
2022-12-27T19:32:33.651Z,8.47
2022-12-27T19:35:04.037Z,6.63
2022-12-27T19:37:33.340Z,6.93
2022-12-27T19:40:01.029Z,6.60
2022-12-27T19:42:31.175Z,7.97
2022-12-27T19:45:00.011Z,10.97
2022-12-27T19:47:27.911Z,9.10
2022-12-27T19:49:55.399Z,8.70
2022-12-27T19:52:24.843Z,9.83
2022-12-27T19:54:57.581Z,8.07
2022-12-27T19:57:25.082Z,10.03
2022-12-27T19:59:52.790Z,9.60
2022-12-27T20:02:23.369Z,17.90
2022-12-27T20:04:51.077Z,21.23
2022-12-27T20:07:22.720Z,18.27
2022-12-27T20:09:50.306Z,12.33
2022-12-27T20:12:17.887Z,10.23
2022-12-27T20:14:45.486Z,12.00
2022-12-27T20:17:12.989Z,11.13
2022-12-27T20:19:41.882Z,11.40
2022-12-27T20:22:09.394Z,11.80
2022-12-27T20:24:37.781Z,12.63
2022-12-27T20:27:05.446Z,11.93
2022-12-27T20:29:33.014Z,19.63
2022-12-27T20:32:00.661Z,16.10
2022-12-27T20:34:28.199Z,16.20
2022-12-27T20:36:58.159Z,12.30
2022-12-27T20:39:25.628Z,13.03
2022-12-27T20:41:53.103Z,12.37
2022-12-27T20:44:20.602Z,12.60
2022-12-27T20:46:48.533Z,12.07
2022-12-27T20:49:16.029Z,12.37
2022-12-27T20:51:43.506Z,13.17
2022-12-27T20:54:15.065Z,13.23
2022-12-27T20:56:42.602Z,13.17
2022-12-27T20:59:10.092Z,13.90
2022-12-27T21:01:37.682Z,12.23
2022-12-27T21:04:06.166Z,13.73
2022-12-27T21:06:33.838Z,14.00
2022-12-27T21:09:01.296Z,16.53
2022-12-27T21:11:32.148Z,16.27
2022-12-27T21:14:01.383Z,15.03
2022-12-27T21:16:30.402Z,13.70
2022-12-27T21:18:58.076Z,14.43
2022-12-27T21:21:28.791Z,14.17
2022-12-27T21:23:57.255Z,13.07
2022-12-27T21:26:26.627Z,14.27
2022-12-27T21:28:56.486Z,13.70
2022-12-27T21:31:24.280Z,16.60
2022-12-27T21:33:52.137Z,15.33
2022-12-27T21:36:21.645Z,13.77
2022-12-27T21:38:49.497Z,14.17
2022-12-27T21:41:18.617Z,14.30
2022-12-27T21:43:47.416Z,14.07
2022-12-27T21:46:18.430Z,13.57
2022-12-27T21:48:47.771Z,13.40
2022-12-27T21:51:18.318Z,16.30
2022-12-27T21:53:46.836Z,16.37
2022-12-27T21:56:15.782Z,15.13
2022-12-27T21:58:44.734Z,15.67
2022-12-27T22:01:14.230Z,16.60
2022-12-27T22:03:45.216Z,15.07
2022-12-27T22:06:14.519Z,18.13
2022-12-27T22:08:43.107Z,17.50
2022-12-27T22:11:11.067Z,18.90
2022-12-27T22:13:38.937Z,16.10
2022-12-27T22:16:08.608Z,25.70
2022-12-27T22:18:39.686Z,27.53
2022-12-27T22:21:09.734Z,21.47
2022-12-27T22:23:38.916Z,24.33
2022-12-27T22:26:10.980Z,31.87
2022-12-27T22:28:38.675Z,20.63
2022-12-27T22:31:06.630Z,29.47
2022-12-27T22:33:35.105Z,31.20
2022-12-27T22:36:03.946Z,39.90
2022-12-27T22:38:33.545Z,38.13
2022-12-27T22:41:05.814Z,43.83
2022-12-27T22:43:33.294Z,37.63
2022-12-27T22:46:00.805Z,50.33
2022-12-27T22:48:28.306Z,42.63
2022-12-27T22:50:55.794Z,55.13
2022-12-27T22:53:23.659Z,50.17
2022-12-27T22:55:52.484Z,35.97
2022-12-27T22:58:19.964Z,34.27
2022-12-27T23:00:47.442Z,28.57
2022-12-27T23:03:14.948Z,34.63
2022-12-27T23:05:42.467Z,38.70
2022-12-27T23:08:09.943Z,37.90
2022-12-27T23:10:37.487Z,22.63
2022-12-27T23:13:06.343Z,20.07
2022-12-27T23:15:33.835Z,21.40
2022-12-27T23:18:01.326Z,25.07
2022-12-27T23:20:28.812Z,29.33
2022-12-27T23:22:56.305Z,35.00
2022-12-27T23:25:23.776Z,28.70
2022-12-27T23:27:51.313Z,21.70
2022-12-27T23:30:22.840Z,22.93
2022-12-27T23:32:50.338Z,40.03
2022-12-27T23:35:18.053Z,65.17
2022-12-27T23:37:45.555Z,48.10
2022-12-27T23:40:13.388Z,20.67
2022-12-27T23:42:40.893Z,24.03
2022-12-27T23:45:09.719Z,20.13
2022-12-27T23:47:38.656Z,18.57
2022-12-27T23:50:06.939Z,18.53
2022-12-27T23:52:34.443Z,19.43
2022-12-27T23:55:02.240Z,18.30
2022-12-27T23:57:29.717Z,17.60
2022-12-27T23:59:57.187Z,17.50
